x

Buoy B01 - Western Maine Shelf (44030) Wave Buoy

1:04pm - Fri 11th Jul 2014 All times are EDT. -4 hours from GMT.

  • Sig Wave height 1.6ft
  • Peak Period 8s
  • Wind
    4mph, 7mph gusts
  • Sea Temp 62°f
  • Air Temp 64°f
  • Sea Pressure 1022.3mb
  • Buoy B01 - Western Maine Shelf
  • Buoy B01 - Western Maine Shelf

More Historic Weather Station data

Upgrade to MSW Pro to gain access to the past 30 days of data for over 8000 Wavebouys and Weather Stations around the globe.

Join Pro

Comparision Forecast

View Surf forecast
   
Fri 07/11 1:04pm 1.6ft 8s 4 7 mph 1022.3mb 62f 64f
12:04pm 1.6ft 8s 4
mph
1022.7mb 62f 64f
11:04am 1.6ft 8s 2
mph
1023.1mb 59f 62f
10:04am 1.6ft 6s 4 7 mph 1022.7mb 59f 61f
9:04am 2.5ft 8s 7 9 mph 1022.7mb 59f 61f
8:04am 2ft 8s 7 9 mph 1022.7mb 59f 60f
7:04am 2ft 8s 9
mph
1022.3mb 60f 60f
5:04am 2ft 8s 9
mph
1021.4mb 60f 59f
4:04am 2ft 8s 7 9 mph 1021.1mb 58f 59f
3:04am 2ft 8s 7
mph
1020.9mb 57f 60f
2:04am 2ft 8s 4
mph
1020.6mb 57f 60f
1:04am 2.5ft 8s 2
mph
1020.3mb 57f 60f
12:04am 2ft 6s 4
mph
1019.9mb 58f 61f
Thu 07/10 11:04pm 2ft 8s 4
mph
1019.6mb 58f 61f
10:04pm 2ft 8s 2 4 mph 1019.4mb 59f 62f
9:04pm 2.5ft 8s 2 4 mph 1018.7mb 59f 64f
8:04pm 2.5ft 8s 7
mph
1018.2mb 60f 64f
7:04pm 2.5ft 8s 7 9 mph 1017.5mb 61f 67f
6:04pm 2.5ft 8s 2 4 mph 1017.3mb 61f 66f
5:04pm 2.5ft 8s 7 9 mph 1017.2mb 60f 66f
4:04pm 2.5ft 8s 7 9 mph 1017.5mb 59f 63f
3:04pm 2.5ft 8s 9
mph
1017.5mb 60f 63f
2:04pm 2ft 8s 9 11 mph 1017.6mb 58f 65f
1:04pm 2ft 8s 7 9 mph 1017.6mb 59f 64f
12:04pm 2.5ft 6s 7 9 mph 1017.4mb 58f 63f
11:04am 2.5ft 8s 7 9 mph 1017mb 59f 61f
10:04am 2.5ft 8s 7
mph
1016.8mb 58f 60f
9:04am 2.5ft 6s 9
mph
1016.5mb 58f 59f
8:04am 2.5ft 8s 7 9 mph 1016mb 58f 59f
7:04am 2.5ft 8s 7 9 mph 1015.4mb 58f 59f
6:04am 2.5ft 8s 9 11 mph 1014.9mb 59f 59f
5:04am 2.5ft 8s 9 11 mph 1014.3mb 58f 59f
4:04am 3ft 8s 9 11 mph 1013.6mb 58f 60f
3:04am 2.5ft 8s 9 11 mph 1012.7mb 57f 60f
2:04am 2.5ft 8s 9
mph
1012.6mb 57f 59f
1:04am 2.5ft 5s 9
mph
1011.9mb 57f 63f
12:04am 2.5ft 5s 7
mph
1011.9mb 57f 62f
Wed 07/09 11:04pm 2.5ft 5s 9
mph
1011.3mb 57f 61f
10:04pm 3ft 8s 11 13 mph 1010.7mb 57f 64f
9:04pm 3.5ft 8s 11 13 mph 1010.1mb 59f 63f
8:04pm 3.5ft 8s 13 16 mph 1009.5mb 59f 64f
7:04pm 3.5ft 8s 13 16 mph 1009.1mb 60f 65f
6:04pm 3.5ft 8s 11 13 mph 1009.1mb 60f 65f
5:04pm 3.5ft 8s 11 13 mph 1009.3mb 60f 65f
4:04pm 4ft 8s 11 13 mph 1009.6mb 59f 64f
3:04pm 4ft 8s 11 13 mph 1009.6mb 59f 64f
2:04pm 3.5ft 6s 9 11 mph 1009.3mb 58f 63f
1:04pm 3.5ft 6s 13
mph
1009.1mb 58f 63f
12:04pm 3.5ft 8s 11 13 mph 1009.1mb 58f 62f
11:04am 3.5ft 6s 11 13 mph 1008.8mb 57f 62f
10:04am 4.5ft 8s 11 13 mph 1008.2mb 57f 61f
9:04am 3.5ft 6s 13 16 mph 1007.7mb 57f 62f
8:04am 4.5ft 6s 13 16 mph 1007.1mb 57f 62f
7:04am 3.5ft 6s 13
mph
1006.3mb 57f 62f
6:04am 4ft 6s 11 13 mph 1005.6mb 57f 61f
5:04am 4ft 5s 13 16 mph 1004.3mb 57f 62f
4:04am 4.5ft 5s 13 16 mph 1003.4mb 57f 62f
3:04am 4.5ft 5s 16 18 mph 1002.7mb 57f 62f
2:04am 4.5ft 6s 16 18 mph 1002.7mb 58f 62f
1:04am 4.5ft 5s 16 18 mph 1003.1mb 58f 62f
12:04am 4.5ft 5s 22 25 mph 1003.1mb 59f 64f
Tue 07/08 11:04pm 5ft 6s 20 22 mph 1003.3mb 59f 64f
10:04pm 4.5ft 5s 20 22 mph 1003.6mb 60f 65f
9:04pm 4ft 4s 20 22 mph 1003.5mb 60f 65f
8:04pm 3.5ft 5s 18 20 mph 1003.3mb 60f 66f
7:04pm 3.5ft 5s 20 22 mph 1003.6mb 60f 66f
6:04pm 2.5ft 5s 18 20 mph 1004.1mb 60f 65f
5:04pm 3ft 8s 13 16 mph 1004.6mb 61f 65f
4:04pm 2.5ft 8s 16
mph
1005.2mb 61f 67f
3:04pm 2.5ft 5s 11 13 mph 1005.8mb 61f 65f
2:04pm 2ft 5s 11 13 mph 1006.3mb 61f 66f
1:04pm 2.5ft 5s 11
mph
1006.9mb 60f 65f
12:04pm 2ft 5s 11
mph
1007.3mb 60f 64f
11:04am 2ft 5s 11 13 mph 1007.2mb 60f 64f
10:04am 2ft 5s 9 11 mph 1007.4mb 60f 63f
9:04am 2.5ft 5s 9
mph
1007.1mb 60f 63f
8:04am 2.5ft 5s 9
mph
1006.3mb 60f 62f
7:04am 2.5ft 5s 11
mph
1005.2mb 60f 62f
6:04am 2.5ft 5s 9 11 mph 1005.2mb 60f 62f
5:04am 3.5ft 6s 11 13 mph 1005mb 60f 63f
4:04am 3.5ft 6s 11 13 mph 1005.3mb 60f 63f
3:04am 3ft 6s 11
mph
1005.2mb 59f 63f
2:04am 3.5ft 6s 9 11 mph 1005.6mb 59f 63f
1:04am 3ft 5s 13 16 mph 1005.5mb 60f 63f
12:04am 2.5ft 5s 9
mph
1004.9mb 60f 63f
Mon 07/07 11:04pm 2.5ft 5s 11 16 mph 1005.4mb 60f 65f
10:04pm 3ft 6s 7
mph
1005.5mb 61f 63f
9:04pm 2.5ft 5s 11
mph
1004.5mb 61f 64f
8:04pm 3ft 5s 11 13 mph 1004.3mb 62f 66f
7:04pm 3.5ft 5s 11 13 mph 1004.2mb 62f 67f